sensor_id;sensor_type;location;lat;lon;timestamp;temperature;humidity
49489;SHT31;35382;51.484;11.476;2022-09-13T00:00:54;11.04;89.23
49489;SHT31;35382;51.484;11.476;2022-09-13T00:02:35;11.15;88.55
49489;SHT31;35382;51.484;11.476;2022-09-13T00:04:16;11.04;88.62
49489;SHT31;35382;51.484;11.476;2022-09-13T00:05:57;11.22;88.09
49489;SHT31;35382;51.484;11.476;2022-09-13T00:07:39;11.16;87.98
49489;SHT31;35382;51.484;11.476;2022-09-13T00:09:20;11.11;88.58
49489;SHT31;35382;51.484;11.476;2022-09-13T00:11:01;11.14;88.24
49489;SHT31;35382;51.484;11.476;2022-09-13T00:12:42;11.18;88.25
49489;SHT31;35382;51.484;11.476;2022-09-13T00:14:23;11.18;88.15
49489;SHT31;35382;51.484;11.476;2022-09-13T00:16:10;11.22;87.95
49489;SHT31;35382;51.484;11.476;2022-09-13T00:17:51;11.26;88.12
49489;SHT31;35382;51.484;11.476;2022-09-13T00:19:32;11.18;87.99
49489;SHT31;35382;51.484;11.476;2022-09-13T00:21:16;11.08;88.55
49489;SHT31;35382;51.484;11.476;2022-09-13T00:22:57;11.05;88.78
49489;SHT31;35382;51.484;11.476;2022-09-13T00:24:38;11.15;88.15
49489;SHT31;35382;51.484;11.476;2022-09-13T00:26:26;11.15;88.26
49489;SHT31;35382;51.484;11.476;2022-09-13T00:28:07;11.14;88.27
49489;SHT31;35382;51.484;11.476;2022-09-13T00:29:48;11.14;88.42
49489;SHT31;35382;51.484;11.476;2022-09-13T00:31:29;11.19;87.80
49489;SHT31;35382;51.484;11.476;2022-09-13T00:33:10;11.20;87.95
49489;SHT31;35382;51.484;11.476;2022-09-13T00:34:50;11.15;88.17
49489;SHT31;35382;51.484;11.476;2022-09-13T00:36:31;11.11;88.13
49489;SHT31;35382;51.484;11.476;2022-09-13T00:38:12;11.05;89.16
49489;SHT31;35382;51.484;11.476;2022-09-13T00:39:53;11.18;87.66
49489;SHT31;35382;51.484;11.476;2022-09-13T00:41:34;11.16;87.83
49489;SHT31;35382;51.484;11.476;2022-09-13T00:43:20;11.08;88.58
49489;SHT31;35382;51.484;11.476;2022-09-13T00:45:22;11.04;88.73
49489;SHT31;35382;51.484;11.476;2022-09-13T00:47:03;10.88;88.78
49489;SHT31;35382;51.484;11.476;2022-09-13T00:48:45;10.76;89.39
49489;SHT31;35382;51.484;11.476;2022-09-13T00:50:32;10.75;89.51
49489;SHT31;35382;51.484;11.476;2022-09-13T00:52:17;10.94;88.69
49489;SHT31;35382;51.484;11.476;2022-09-13T00:54:00;10.82;88.99
49489;SHT31;35382;51.484;11.476;2022-09-13T00:55:55;10.74;89.34
49489;SHT31;35382;51.484;11.476;2022-09-13T00:57:37;10.65;89.77
49489;SHT31;35382;51.484;11.476;2022-09-13T00:59:44;10.74;89.91
49489;SHT31;35382;51.484;11.476;2022-09-13T01:01:28;10.79;90.01
49489;SHT31;35382;51.484;11.476;2022-09-13T01:03:12;10.79;89.93
49489;SHT31;35382;51.484;11.476;2022-09-13T01:04:54;10.75;89.43
49489;SHT31;35382;51.484;11.476;2022-09-13T01:06:37;10.81;89.93
49489;SHT31;35382;51.484;11.476;2022-09-13T01:08:18;10.81;89.61
49489;SHT31;35382;51.484;11.476;2022-09-13T01:10:04;10.82;89.61
49489;SHT31;35382;51.484;11.476;2022-09-13T01:12:03;10.86;89.49
49489;SHT31;35382;51.484;11.476;2022-09-13T01:13:47;10.95;89.47
49489;SHT31;35382;51.484;11.476;2022-09-13T01:15:28;10.98;89.61
49489;SHT31;35382;51.484;11.476;2022-09-13T01:17:09;10.98;89.62
49489;SHT31;35382;51.484;11.476;2022-09-13T01:18:50;10.94;89.85
49489;SHT31;35382;51.484;11.476;2022-09-13T01:20:44;10.96;89.98
49489;SHT31;35382;51.484;11.476;2022-09-13T01:23:01;10.92;89.90
49489;SHT31;35382;51.484;11.476;2022-09-13T01:29:03;10.78;89.83
49489;SHT31;35382;51.484;11.476;2022-09-13T01:31:09;10.84;89.63
49489;SHT31;35382;51.484;11.476;2022-09-13T01:33:15;10.69;89.58
49489;SHT31;35382;51.484;11.476;2022-09-13T01:35:15;10.69;90.50
49489;SHT31;35382;51.484;11.476;2022-09-13T01:37:26;10.76;89.61
49489;SHT31;35382;51.484;11.476;2022-09-13T01:39:16;10.62;90.64
49489;SHT31;35382;51.484;11.476;2022-09-13T01:43:22;10.60;90.47
49489;SHT31;35382;51.484;11.476;2022-09-13T01:45:08;10.68;90.22
49489;SHT31;35382;51.484;11.476;2022-09-13T01:47:26;10.85;89.84
49489;SHT31;35382;51.484;11.476;2022-09-13T01:49:24;10.75;90.03
49489;SHT31;35382;51.484;11.476;2022-09-13T01:51:22;10.76;90.67
49489;SHT31;35382;51.484;11.476;2022-09-13T01:55:33;10.82;88.73
49489;SHT31;35382;51.484;11.476;2022-09-13T01:59:22;10.89;89.46
49489;SHT31;35382;51.484;11.476;2022-09-13T02:01:17;10.84;89.38
49489;SHT31;35382;51.484;11.476;2022-09-13T02:03:09;10.86;89.66
49489;SHT31;35382;51.484;11.476;2022-09-13T02:04:55;10.94;89.19
49489;SHT31;35382;51.484;11.476;2022-09-13T02:06:50;10.76;89.71
49489;SHT31;35382;51.484;11.476;2022-09-13T02:08:40;10.76;89.72
49489;SHT31;35382;51.484;11.476;2022-09-13T02:10:32;10.67;89.98
49489;SHT31;35382;51.484;11.476;2022-09-13T02:12:18;10.61;90.79
49489;SHT31;35382;51.484;11.476;2022-09-13T02:14:06;10.60;89.99
49489;SHT31;35382;51.484;11.476;2022-09-13T02:15:53;10.67;89.85
49489;SHT31;35382;51.484;11.476;2022-09-13T02:17:40;10.54;89.93
49489;SHT31;35382;51.484;11.476;2022-09-13T02:19:27;10.50;91.14
49489;SHT31;35382;51.484;11.476;2022-09-13T02:21:17;10.51;90.94
49489;SHT31;35382;51.484;11.476;2022-09-13T02:23:03;10.48;90.53
49489;SHT31;35382;51.484;11.476;2022-09-13T02:24:49;10.42;90.61
49489;SHT31;35382;51.484;11.476;2022-09-13T02:26:33;10.40;90.62
49489;SHT31;35382;51.484;11.476;2022-09-13T02:28:18;10.42;90.78
49489;SHT31;35382;51.484;11.476;2022-09-13T02:30:04;10.45;90.84
49489;SHT31;35382;51.484;11.476;2022-09-13T02:32:09;10.58;90.71
49489;SHT31;35382;51.484;11.476;2022-09-13T02:34:26;10.62;91.36
49489;SHT31;35382;51.484;11.476;2022-09-13T02:36:21;10.69;91.00
49489;SHT31;35382;51.484;11.476;2022-09-13T02:38:11;10.60;91.28
49489;SHT31;35382;51.484;11.476;2022-09-13T02:43:04;10.82;90.93
49489;SHT31;35382;51.484;11.476;2022-09-13T02:44:51;10.76;90.36
49489;SHT31;35382;51.484;11.476;2022-09-13T02:46:49;10.78;90.71
49489;SHT31;35382;51.484;11.476;2022-09-13T02:52:35;10.78;89.84
49489;SHT31;35382;51.484;11.476;2022-09-13T02:54:24;10.72;90.42
49489;SHT31;35382;51.484;11.476;2022-09-13T02:56:23;10.75;90.28
49489;SHT31;35382;51.484;11.476;2022-09-13T02:58:13;10.68;90.12
49489;SHT31;35382;51.484;11.476;2022-09-13T02:59:59;10.61;90.13
49489;SHT31;35382;51.484;11.476;2022-09-13T03:01:44;10.62;90.10
49489;SHT31;35382;51.484;11.476;2022-09-13T03:03:27;10.65;89.92
49489;SHT31;35382;51.484;11.476;2022-09-13T03:05:08;10.60;90.20
49489;SHT31;35382;51.484;11.476;2022-09-13T03:06:50;10.60;90.44
49489;SHT31;35382;51.484;11.476;2022-09-13T03:08:31;10.50;90.82
49489;SHT31;35382;51.484;11.476;2022-09-13T03:10:14;10.47;90.94
49489;SHT31;35382;51.484;11.476;2022-09-13T03:12:08;10.50;90.93
49489;SHT31;35382;51.484;11.476;2022-09-13T03:22:26;10.42;90.38
49489;SHT31;35382;51.484;11.476;2022-09-13T03:24:24;10.45;89.12
49489;SHT31;35382;51.484;11.476;2022-09-13T03:30:11;10.42;89.79
49489;SHT31;35382;51.484;11.476;2022-09-13T03:32:18;10.41;89.26
49489;SHT31;35382;51.484;11.476;2022-09-13T03:35:53;10.55;90.70
49489;SHT31;35382;51.484;11.476;2022-09-13T03:38:04;10.50;90.81
49489;SHT31;35382;51.484;11.476;2022-09-13T03:39:51;10.60;90.37
49489;SHT31;35382;51.484;11.476;2022-09-13T03:41:38;10.65;90.53
49489;SHT31;35382;51.484;11.476;2022-09-13T03:43:25;10.62;90.59
49489;SHT31;35382;51.484;11.476;2022-09-13T03:45:18;10.61;90.83
49489;SHT31;35382;51.484;11.476;2022-09-13T03:47:01;10.62;90.98
49489;SHT31;35382;51.484;11.476;2022-09-13T03:48:44;10.60;91.35
49489;SHT31;35382;51.484;11.476;2022-09-13T03:50:25;10.64;91.20
49489;SHT31;35382;51.484;11.476;2022-09-13T03:52:06;10.74;91.09
49489;SHT31;35382;51.484;11.476;2022-09-13T03:53:52;10.67;91.59
49489;SHT31;35382;51.484;11.476;2022-09-13T03:55:40;10.74;90.98
49489;SHT31;35382;51.484;11.476;2022-09-13T03:57:22;10.81;91.04
49489;SHT31;35382;51.484;11.476;2022-09-13T03:59:03;10.81;90.85
49489;SHT31;35382;51.484;11.476;2022-09-13T04:00:44;10.96;90.78
49489;SHT31;35382;51.484;11.476;2022-09-13T04:02:25;10.98;90.39
49489;SHT31;35382;51.484;11.476;2022-09-13T04:04:06;10.95;90.72
49489;SHT31;35382;51.484;11.476;2022-09-13T04:05:47;11.06;90.38
49489;SHT31;35382;51.484;11.476;2022-09-13T04:07:28;11.04;90.59
49489;SHT31;35382;51.484;11.476;2022-09-13T04:09:09;11.11;90.40
49489;SHT31;35382;51.484;11.476;2022-09-13T04:10:50;11.09;90.71
49489;SHT31;35382;51.484;11.476;2022-09-13T04:12:31;11.22;90.73
49489;SHT31;35382;51.484;11.476;2022-09-13T04:14:15;11.22;90.84
49489;SHT31;35382;51.484;11.476;2022-09-13T04:16:00;11.32;90.94
49489;SHT31;35382;51.484;11.476;2022-09-13T04:17:42;11.39;90.58
49489;SHT31;35382;51.484;11.476;2022-09-13T04:19:24;11.36;90.89
49489;SHT31;35382;51.484;11.476;2022-09-13T04:21:05;11.46;90.39
49489;SHT31;35382;51.484;11.476;2022-09-13T04:22:55;11.46;90.54
49489;SHT31;35382;51.484;11.476;2022-09-13T04:24:37;11.55;90.17
49489;SHT31;35382;51.484;11.476;2022-09-13T04:26:19;11.50;90.40
49489;SHT31;35382;51.484;11.476;2022-09-13T04:28:00;11.50;90.05
49489;SHT31;35382;51.484;11.476;2022-09-13T04:29:41;11.53;89.89
49489;SHT31;35382;51.484;11.476;2022-09-13T04:31:22;11.47;90.20
49489;SHT31;35382;51.484;11.476;2022-09-13T04:33:03;11.49;90.20
49489;SHT31;35382;51.484;11.476;2022-09-13T04:34:47;11.50;90.09
49489;SHT31;35382;51.484;11.476;2022-09-13T04:36:28;11.53;90.04
49489;SHT31;35382;51.484;11.476;2022-09-13T04:38:09;11.47;90.13
49489;SHT31;35382;51.484;11.476;2022-09-13T04:39:50;11.55;90.17
49489;SHT31;35382;51.484;11.476;2022-09-13T04:41:31;11.56;90.17
49489;SHT31;35382;51.484;11.476;2022-09-13T04:43:14;11.56;90.25
49489;SHT31;35382;51.484;11.476;2022-09-13T04:44:55;11.55;90.49
49489;SHT31;35382;51.484;11.476;2022-09-13T04:46:36;11.60;90.58
49489;SHT31;35382;51.484;11.476;2022-09-13T04:48:17;11.55;90.69
49489;SHT31;35382;51.484;11.476;2022-09-13T04:49:58;11.55;90.40
49489;SHT31;35382;51.484;11.476;2022-09-13T04:51:39;11.55;90.50
49489;SHT31;35382;51.484;11.476;2022-09-13T04:53:20;11.69;90.06
49489;SHT31;35382;51.484;11.476;2022-09-13T04:55:01;11.63;90.18
49489;SHT31;35382;51.484;11.476;2022-09-13T04:56:43;11.70;90.19
49489;SHT31;35382;51.484;11.476;2022-09-13T04:58:24;11.82;90.00
49489;SHT31;35382;51.484;11.476;2022-09-13T05:00:06;11.89;89.57
49489;SHT31;35382;51.484;11.476;2022-09-13T05:01:47;11.90;89.86
49489;SHT31;35382;51.484;11.476;2022-09-13T05:03:32;11.83;90.20
49489;SHT31;35382;51.484;11.476;2022-09-13T05:05:13;11.90;90.38
49489;SHT31;35382;51.484;11.476;2022-09-13T05:06:54;12.00;90.47
49489;SHT31;35382;51.484;11.476;2022-09-13T05:08:36;12.01;90.52
49489;SHT31;35382;51.484;11.476;2022-09-13T05:10:17;12.04;90.61
49489;SHT31;35382;51.484;11.476;2022-09-13T05:11:58;12.06;90.61
49489;SHT31;35382;51.484;11.476;2022-09-13T05:13:39;12.12;90.08
49489;SHT31;35382;51.484;11.476;2022-09-13T05:15:20;12.14;90.59
49489;SHT31;35382;51.484;11.476;2022-09-13T05:17:01;12.21;90.30
49489;SHT31;35382;51.484;11.476;2022-09-13T05:18:42;12.23;90.46
49489;SHT31;35382;51.484;11.476;2022-09-13T05:20:23;12.23;90.82
49489;SHT31;35382;51.484;11.476;2022-09-13T05:22:04;12.33;90.66
49489;SHT31;35382;51.484;11.476;2022-09-13T05:23:48;12.34;89.55
49489;SHT31;35382;51.484;11.476;2022-09-13T05:25:29;12.40;88.86
49489;SHT31;35382;51.484;11.476;2022-09-13T05:27:10;12.44;88.88
49489;SHT31;35382;51.484;11.476;2022-09-13T05:28:51;12.50;88.79
49489;SHT31;35382;51.484;11.476;2022-09-13T05:30:32;12.52;89.23
49489;SHT31;35382;51.484;11.476;2022-09-13T05:32:13;12.65;88.74
49489;SHT31;35382;51.484;11.476;2022-09-13T05:33:57;12.62;89.57
49489;SHT31;35382;51.484;11.476;2022-09-13T05:35:39;12.65;89.62
49489;SHT31;35382;51.484;11.476;2022-09-13T05:37:20;12.65;89.67
49489;SHT31;35382;51.484;11.476;2022-09-13T05:39:02;12.62;89.88
49489;SHT31;35382;51.484;11.476;2022-09-13T05:40:43;12.68;89.62
49489;SHT31;35382;51.484;11.476;2022-09-13T05:42:24;12.74;89.72
49489;SHT31;35382;51.484;11.476;2022-09-13T05:44:05;12.72;90.58
49489;SHT31;35382;51.484;11.476;2022-09-13T05:45:46;12.75;89.55
49489;SHT31;35382;51.484;11.476;2022-09-13T05:47:27;12.78;90.37
49489;SHT31;35382;51.484;11.476;2022-09-13T05:49:10;12.84;89.67
49489;SHT31;35382;51.484;11.476;2022-09-13T05:50:52;12.81;90.23
49489;SHT31;35382;51.484;11.476;2022-09-13T05:52:33;12.82;90.33
49489;SHT31;35382;51.484;11.476;2022-09-13T05:54:14;12.81;90.89
49489;SHT31;35382;51.484;11.476;2022-09-13T05:55:54;12.85;90.39
49489;SHT31;35382;51.484;11.476;2022-09-13T05:57:35;12.88;91.22
49489;SHT31;35382;51.484;11.476;2022-09-13T05:59:17;12.88;91.62
49489;SHT31;35382;51.484;11.476;2022-09-13T06:00:58;12.92;90.37
49489;SHT31;35382;51.484;11.476;2022-09-13T06:02:39;12.96;90.74
49489;SHT31;35382;51.484;11.476;2022-09-13T06:04:20;12.96;90.27
49489;SHT31;35382;51.484;11.476;2022-09-13T06:06:02;12.96;90.75
49489;SHT31;35382;51.484;11.476;2022-09-13T06:07:43;12.99;90.48
49489;SHT31;35382;51.484;11.476;2022-09-13T06:09:24;13.01;90.76
49489;SHT31;35382;51.484;11.476;2022-09-13T06:11:07;13.01;91.02
49489;SHT31;35382;51.484;11.476;2022-09-13T06:12:49;13.04;90.91
49489;SHT31;35382;51.484;11.476;2022-09-13T06:14:30;13.01;90.29
49489;SHT31;35382;51.484;11.476;2022-09-13T06:16:12;13.02;90.56
49489;SHT31;35382;51.484;11.476;2022-09-13T06:17:53;13.02;90.83
49489;SHT31;35382;51.484;11.476;2022-09-13T06:19:34;13.02;91.31
49489;SHT31;35382;51.484;11.476;2022-09-13T06:21:20;13.04;91.08
49489;SHT31;35382;51.484;11.476;2022-09-13T06:23:01;13.06;91.36
49489;SHT31;35382;51.484;11.476;2022-09-13T06:24:42;13.12;91.81
49489;SHT31;35382;51.484;11.476;2022-09-13T06:26:25;13.16;91.87
49489;SHT31;35382;51.484;11.476;2022-09-13T06:28:06;13.18;91.64
49489;SHT31;35382;51.484;11.476;2022-09-13T06:29:47;13.15;91.57
49489;SHT31;35382;51.484;11.476;2022-09-13T06:31:28;13.19;91.65
49489;SHT31;35382;51.484;11.476;2022-09-13T06:33:10;13.15;91.17
49489;SHT31;35382;51.484;11.476;2022-09-13T06:34:50;13.16;90.79
49489;SHT31;35382;51.484;11.476;2022-09-13T06:36:31;13.18;90.70
49489;SHT31;35382;51.484;11.476;2022-09-13T06:38:13;13.22;90.49
49489;SHT31;35382;51.484;11.476;2022-09-13T06:39:54;13.25;90.38
49489;SHT31;35382;51.484;11.476;2022-09-13T06:41:35;13.20;90.67
49489;SHT31;35382;51.484;11.476;2022-09-13T06:43:17;13.19;90.36
49489;SHT31;35382;51.484;11.476;2022-09-13T06:44:57;13.19;90.37
49489;SHT31;35382;51.484;11.476;2022-09-13T06:46:39;13.20;90.76
49489;SHT31;35382;51.484;11.476;2022-09-13T06:48:20;13.23;90.30
49489;SHT31;35382;51.484;11.476;2022-09-13T06:50:01;13.28;89.26
49489;SHT31;35382;51.484;11.476;2022-09-13T06:51:42;13.30;89.35
49489;SHT31;35382;51.484;11.476;2022-09-13T06:53:23;13.30;89.01
49489;SHT31;35382;51.484;11.476;2022-09-13T06:55:04;13.30;89.24
49489;SHT31;35382;51.484;11.476;2022-09-13T06:56:45;13.30;89.82
49489;SHT31;35382;51.484;11.476;2022-09-13T06:58:28;13.30;89.03
49489;SHT31;35382;51.484;11.476;2022-09-13T07:00:10;13.32;88.69
49489;SHT31;35382;51.484;11.476;2022-09-13T07:01:51;13.40;89.41
49489;SHT31;35382;51.484;11.476;2022-09-13T07:03:32;13.43;88.92
49489;SHT31;35382;51.484;11.476;2022-09-13T07:05:13;13.45;88.15
49489;SHT31;35382;51.484;11.476;2022-09-13T07:06:57;13.49;88.74
49489;SHT31;35382;51.484;11.476;2022-09-13T07:08:39;13.52;88.15
49489;SHT31;35382;51.484;11.476;2022-09-13T07:10:20;13.58;88.15
49489;SHT31;35382;51.484;11.476;2022-09-13T07:12:01;13.62;89.41
49489;SHT31;35382;51.484;11.476;2022-09-13T07:13:51;13.70;89.30
49489;SHT31;35382;51.484;11.476;2022-09-13T07:15:35;13.83;89.07
49489;SHT31;35382;51.484;11.476;2022-09-13T07:17:16;13.84;88.97
49489;SHT31;35382;51.484;11.476;2022-09-13T07:19:02;13.91;89.29
49489;SHT31;35382;51.484;11.476;2022-09-13T07:20:45;14.02;88.99
49489;SHT31;35382;51.484;11.476;2022-09-13T07:22:26;14.09;88.74
49489;SHT31;35382;51.484;11.476;2022-09-13T07:24:07;14.27;88.54
49489;SHT31;35382;51.484;11.476;2022-09-13T07:25:55;14.40;88.19
49489;SHT31;35382;51.484;11.476;2022-09-13T07:27:41;14.52;87.86
49489;SHT31;35382;51.484;11.476;2022-09-13T07:29:22;14.71;87.04
49489;SHT31;35382;51.484;11.476;2022-09-13T07:31:12;14.64;86.63
49489;SHT31;35382;51.484;11.476;2022-09-13T07:32:53;14.78;86.36
49489;SHT31;35382;51.484;11.476;2022-09-13T07:34:34;14.88;85.96
49489;SHT31;35382;51.484;11.476;2022-09-13T07:36:15;14.73;86.09
49489;SHT31;35382;51.484;11.476;2022-09-13T07:37:56;14.78;85.96
49489;SHT31;35382;51.484;11.476;2022-09-13T07:39:37;14.80;86.11
49489;SHT31;35382;51.484;11.476;2022-09-13T07:41:22;14.94;85.32
49489;SHT31;35382;51.484;11.476;2022-09-13T07:43:03;14.94;85.77
49489;SHT31;35382;51.484;11.476;2022-09-13T07:44:44;15.01;85.51
49489;SHT31;35382;51.484;11.476;2022-09-13T07:46:27;14.98;85.06
49489;SHT31;35382;51.484;11.476;2022-09-13T07:48:08;15.08;85.09
49489;SHT31;35382;51.484;11.476;2022-09-13T07:49:49;15.11;84.83
49489;SHT31;35382;51.484;11.476;2022-09-13T07:51:32;15.25;84.90
49489;SHT31;35382;51.484;11.476;2022-09-13T07:53:13;15.31;85.02
49489;SHT31;35382;51.484;11.476;2022-09-13T07:54:54;15.35;85.04
49489;SHT31;35382;51.484;11.476;2022-09-13T07:56:38;15.42;84.81
49489;SHT31;35382;51.484;11.476;2022-09-13T07:58:19;15.48;84.57
49489;SHT31;35382;51.484;11.476;2022-09-13T08:00:00;15.51;84.25
49489;SHT31;35382;51.484;11.476;2022-09-13T08:01:46;15.39;84.65
49489;SHT31;35382;51.484;11.476;2022-09-13T08:03:27;15.53;83.98
49489;SHT31;35382;51.484;11.476;2022-09-13T08:05:09;15.55;85.28
49489;SHT31;35382;51.484;11.476;2022-09-13T08:06:51;15.63;85.09
49489;SHT31;35382;51.484;11.476;2022-09-13T08:08:32;15.46;84.39
49489;SHT31;35382;51.484;11.476;2022-09-13T08:10:14;15.59;84.21
49489;SHT31;35382;51.484;11.476;2022-09-13T08:11:55;15.62;83.81
49489;SHT31;35382;51.484;11.476;2022-09-13T08:13:36;15.75;84.34
49489;SHT31;35382;51.484;11.476;2022-09-13T08:15:17;16.03;84.56
49489;SHT31;35382;51.484;11.476;2022-09-13T08:16:58;16.09;83.37
49489;SHT31;35382;51.484;11.476;2022-09-13T08:18:46;16.16;82.76
49489;SHT31;35382;51.484;11.476;2022-09-13T08:20:27;16.14;82.48
49489;SHT31;35382;51.484;11.476;2022-09-13T08:22:08;16.09;83.34
49489;SHT31;35382;51.484;11.476;2022-09-13T08:23:53;16.21;83.29
49489;SHT31;35382;51.484;11.476;2022-09-13T08:25:35;16.27;82.80
49489;SHT31;35382;51.484;11.476;2022-09-13T08:27:16;16.27;81.97
49489;SHT31;35382;51.484;11.476;2022-09-13T08:28:59;16.39;82.50
49489;SHT31;35382;51.484;11.476;2022-09-13T08:30:41;16.64;82.00
49489;SHT31;35382;51.484;11.476;2022-09-13T08:32:23;16.68;83.23
49489;SHT31;35382;51.484;11.476;2022-09-13T08:34:04;16.61;81.43
49489;SHT31;35382;51.484;11.476;2022-09-13T08:35:51;16.64;82.28
49489;SHT31;35382;51.484;11.476;2022-09-13T08:37:32;16.60;81.89
49489;SHT31;35382;51.484;11.476;2022-09-13T08:39:14;16.83;82.09
49489;SHT31;35382;51.484;11.476;2022-09-13T08:41:03;16.83;82.08
49489;SHT31;35382;51.484;11.476;2022-09-13T08:43:02;16.75;81.39
49489;SHT31;35382;51.484;11.476;2022-09-13T08:44:49;17.12;80.62
49489;SHT31;35382;51.484;11.476;2022-09-13T08:46:35;17.36;79.68
49489;SHT31;35382;51.484;11.476;2022-09-13T08:48:19;17.59;79.63
49489;SHT31;35382;51.484;11.476;2022-09-13T08:50:13;17.72;77.61
49489;SHT31;35382;51.484;11.476;2022-09-13T08:51:58;18.02;79.15
49489;SHT31;35382;51.484;11.476;2022-09-13T08:53:44;18.36;78.18
49489;SHT31;35382;51.484;11.476;2022-09-13T08:57:37;18.95;75.05
49489;SHT31;35382;51.484;11.476;2022-09-13T09:03:19;19.39;74.29
49489;SHT31;35382;51.484;11.476;2022-09-13T09:05:19;19.29;73.34
49489;SHT31;35382;51.484;11.476;2022-09-13T09:07:05;19.54;72.43
49489;SHT31;35382;51.484;11.476;2022-09-13T09:08:58;19.71;74.55
49489;SHT31;35382;51.484;11.476;2022-09-13T09:10:45;19.52;73.02
49489;SHT31;35382;51.484;11.476;2022-09-13T09:12:53;19.75;73.95
49489;SHT31;35382;51.484;11.476;2022-09-13T09:14:38;19.85;71.56
49489;SHT31;35382;51.484;11.476;2022-09-13T09:18:45;19.54;73.35
49489;SHT31;35382;51.484;11.476;2022-09-13T09:20:44;19.52;72.13
49489;SHT31;35382;51.484;11.476;2022-09-13T09:22:31;19.28;71.33
49489;SHT31;35382;51.484;11.476;2022-09-13T09:24:23;19.65;70.85
49489;SHT31;35382;51.484;11.476;2022-09-13T09:26:20;19.92;70.01
49489;SHT31;35382;51.484;11.476;2022-09-13T09:28:08;19.71;69.38
49489;SHT31;35382;51.484;11.476;2022-09-13T09:29:53;19.34;71.06
49489;SHT31;35382;51.484;11.476;2022-09-13T09:31:46;19.58;71.73
49489;SHT31;35382;51.484;11.476;2022-09-13T09:33:41;19.85;71.70
49489;SHT31;35382;51.484;11.476;2022-09-13T09:37:22;20.04;70.48
49489;SHT31;35382;51.484;11.476;2022-09-13T09:39:10;20.09;70.37
49489;SHT31;35382;51.484;11.476;2022-09-13T09:40:51;19.83;69.27
49489;SHT31;35382;51.484;11.476;2022-09-13T09:42:43;19.79;71.54
49489;SHT31;35382;51.484;11.476;2022-09-13T09:44:27;20.02;70.14
49489;SHT31;35382;51.484;11.476;2022-09-13T09:46:11;20.04;68.70
49489;SHT31;35382;51.484;11.476;2022-09-13T09:48:03;20.28;69.55
49489;SHT31;35382;51.484;11.476;2022-09-13T09:52:07;20.52;66.80
49489;SHT31;35382;51.484;11.476;2022-09-13T09:53:56;20.29;67.92
49489;SHT31;35382;51.484;11.476;2022-09-13T09:55:49;20.46;67.75
49489;SHT31;35382;51.484;11.476;2022-09-13T09:58:03;20.29;69.41
49489;SHT31;35382;51.484;11.476;2022-09-13T09:59:45;20.23;68.38
49489;SHT31;35382;51.484;11.476;2022-09-13T10:01:33;20.22;70.42
49489;SHT31;35382;51.484;11.476;2022-09-13T10:03:18;19.96;69.46
49489;SHT31;35382;51.484;11.476;2022-09-13T10:05:00;19.95;70.49
49489;SHT31;35382;51.484;11.476;2022-09-13T10:06:42;20.05;70.37
49489;SHT31;35382;51.484;11.476;2022-09-13T10:08:29;20.30;70.07
49489;SHT31;35382;51.484;11.476;2022-09-13T10:10:22;20.09;70.56
49489;SHT31;35382;51.484;11.476;2022-09-13T10:12:05;20.00;70.25
49489;SHT31;35382;51.484;11.476;2022-09-13T10:13:57;20.00;70.20
49489;SHT31;35382;51.484;11.476;2022-09-13T10:15:57;20.06;69.35
49489;SHT31;35382;51.484;11.476;2022-09-13T10:17:38;20.18;69.00
49489;SHT31;35382;51.484;11.476;2022-09-13T10:19:23;20.06;69.57
49489;SHT31;35382;51.484;11.476;2022-09-13T10:23:17;20.15;69.00
49489;SHT31;35382;51.484;11.476;2022-09-13T10:25:21;20.15;68.15
49489;SHT31;35382;51.484;11.476;2022-09-13T10:27:03;20.10;68.14
49489;SHT31;35382;51.484;11.476;2022-09-13T10:28:50;20.36;68.97
49489;SHT31;35382;51.484;11.476;2022-09-13T10:30:41;20.30;67.66
49489;SHT31;35382;51.484;11.476;2022-09-13T10:32:25;20.40;68.86
49489;SHT31;35382;51.484;11.476;2022-09-13T10:35:55;20.30;68.77
49489;SHT31;35382;51.484;11.476;2022-09-13T10:37:41;20.20;67.16
49489;SHT31;35382;51.484;11.476;2022-09-13T10:39:24;20.23;68.17
49489;SHT31;35382;51.484;11.476;2022-09-13T10:41:08;20.32;68.61
49489;SHT31;35382;51.484;11.476;2022-09-13T10:42:56;20.37;68.23
49489;SHT31;35382;51.484;11.476;2022-09-13T10:44:44;20.20;68.34
49489;SHT31;35382;51.484;11.476;2022-09-13T10:46:29;20.44;69.42
49489;SHT31;35382;51.484;11.476;2022-09-13T10:48:14;20.40;67.46
49489;SHT31;35382;51.484;11.476;2022-09-13T10:49:56;20.20;68.06
49489;SHT31;35382;51.484;11.476;2022-09-13T10:51:39;20.25;68.37
49489;SHT31;35382;51.484;11.476;2022-09-13T10:53:33;20.16;68.09
49489;SHT31;35382;51.484;11.476;2022-09-13T10:56:58;20.46;66.40
49489;SHT31;35382;51.484;11.476;2022-09-13T10:58:39;20.63;66.95
49489;SHT31;35382;51.484;11.476;2022-09-13T11:00:22;20.77;66.84
49489;SHT31;35382;51.484;11.476;2022-09-13T11:04:44;21.03;66.19
49489;SHT31;35382;51.484;11.476;2022-09-13T11:08:39;21.00;65.80
49489;SHT31;35382;51.484;11.476;2022-09-13T11:10:30;21.08;66.44
49489;SHT31;35382;51.484;11.476;2022-09-13T11:12:26;21.24;67.44
49489;SHT31;35382;51.484;11.476;2022-09-13T11:14:17;21.14;66.52
49489;SHT31;35382;51.484;11.476;2022-09-13T11:22:31;22.57;64.93
49489;SHT31;35382;51.484;11.476;2022-09-13T11:30:16;22.62;63.09
49489;SHT31;35382;51.484;11.476;2022-09-13T11:36:21;22.82;61.73
49489;SHT31;35382;51.484;11.476;2022-09-13T11:42:09;23.13;59.53
49489;SHT31;35382;51.484;11.476;2022-09-13T11:46:26;22.38;61.72
49489;SHT31;35382;51.484;11.476;2022-09-13T11:48:23;22.48;62.55
49489;SHT31;35382;51.484;11.476;2022-09-13T11:50:24;22.57;61.32
49489;SHT31;35382;51.484;11.476;2022-09-13T11:52:29;22.48;62.05
49489;SHT31;35382;51.484;11.476;2022-09-13T11:56:35;22.94;61.81
49489;SHT31;35382;51.484;11.476;2022-09-13T11:58:49;22.96;60.40
49489;SHT31;35382;51.484;11.476;2022-09-13T12:03:39;23.07;59.45
49489;SHT31;35382;51.484;11.476;2022-09-13T12:05:24;23.37;60.53
49489;SHT31;35382;51.484;11.476;2022-09-13T12:07:13;23.62;59.05
49489;SHT31;35382;51.484;11.476;2022-09-13T12:09:00;23.44;59.14
49489;SHT31;35382;51.484;11.476;2022-09-13T12:10:48;23.27;58.90
49489;SHT31;35382;51.484;11.476;2022-09-13T12:12:33;23.03;59.69
49489;SHT31;35382;51.484;11.476;2022-09-13T12:14:18;22.83;59.30
49489;SHT31;35382;51.484;11.476;2022-09-13T12:16:06;22.79;60.57
49489;SHT31;35382;51.484;11.476;2022-09-13T12:17:55;22.90;59.87
49489;SHT31;35382;51.484;11.476;2022-09-13T12:19:44;22.67;59.36